createdAt,value
2023-11-10T00:00:56.362Z,18.10
2023-11-10T00:03:23.848Z,17.92
2023-11-10T00:05:51.390Z,16.80
2023-11-10T00:08:19.114Z,15.65
2023-11-10T00:10:49.088Z,17.30
2023-11-10T00:13:17.125Z,15.45
2023-11-10T00:15:44.417Z,15.73
2023-11-10T00:18:11.823Z,15.25
2023-11-10T00:20:41.252Z,15.82
2023-11-10T00:23:09.744Z,14.90
2023-11-10T00:25:37.045Z,15.02
2023-11-10T00:28:05.086Z,15.60
2023-11-10T00:30:32.450Z,14.77
2023-11-10T00:32:59.998Z,14.32
2023-11-10T00:35:27.417Z,15.35
2023-11-10T00:37:54.674Z,14.38
2023-11-10T00:40:22.223Z,15.32
2023-11-10T00:42:49.765Z,15.13
2023-11-10T00:45:17.123Z,15.00
2023-11-10T00:47:45.020Z,14.77
2023-11-10T00:50:13.356Z,15.63
2023-11-10T00:52:40.728Z,14.15
2023-11-10T00:55:08.644Z,14.65
2023-11-10T00:57:36.130Z,14.15
2023-11-10T01:00:04.833Z,15.30
2023-11-10T01:02:32.957Z,15.23
2023-11-10T01:05:00.153Z,15.60
2023-11-10T01:07:27.846Z,14.75
2023-11-10T01:09:55.041Z,15.00
2023-11-10T01:12:22.620Z,16.00
2023-11-10T01:14:49.934Z,15.52
2023-11-10T01:17:17.249Z,15.50
2023-11-10T01:19:44.601Z,16.02
2023-11-10T01:22:12.430Z,15.75
2023-11-10T01:24:40.102Z,16.55
2023-11-10T01:27:08.743Z,16.83
2023-11-10T01:29:35.917Z,17.17
2023-11-10T01:32:03.102Z,16.15
2023-11-10T01:34:30.445Z,16.70
2023-11-10T01:36:57.920Z,17.00
2023-11-10T01:39:25.707Z,16.67
2023-11-10T01:41:54.018Z,15.88
2023-11-10T01:44:21.186Z,15.48
2023-11-10T01:46:49.938Z,16.35
2023-11-10T01:49:22.404Z,15.23
2023-11-10T01:51:56.740Z,15.07
2023-11-10T01:54:29.147Z,16.83
2023-11-10T01:56:57.455Z,16.02
2023-11-10T01:59:25.188Z,16.38
2023-11-10T02:01:52.448Z,16.85
2023-11-10T02:04:20.085Z,16.08
2023-11-10T02:06:49.079Z,15.60
2023-11-10T02:09:17.169Z,16.20
2023-11-10T02:11:44.629Z,15.52
2023-11-10T02:14:13.758Z,16.40
2023-11-10T02:16:41.476Z,16.38
2023-11-10T02:19:16.381Z,15.20
2023-11-10T02:21:44.984Z,17.00
2023-11-10T02:24:15.213Z,17.30
2023-11-10T02:26:44.701Z,15.57
2023-11-10T02:29:12.151Z,15.98
2023-11-10T02:31:42.595Z,17.17
2023-11-10T02:34:09.947Z,19.02
2023-11-10T02:36:38.622Z,18.10
2023-11-10T02:39:08.469Z,18.43
2023-11-10T02:41:37.050Z,18.85
2023-11-10T02:44:04.453Z,19.10
2023-11-10T02:46:31.869Z,19.10
2023-11-10T02:49:00.488Z,19.35
2023-11-10T02:51:28.040Z,18.63
2023-11-10T02:53:55.503Z,19.55
2023-11-10T02:56:22.617Z,18.42
2023-11-10T02:58:49.883Z,18.13
2023-11-10T03:01:24.025Z,18.67
2023-11-10T03:03:52.275Z,19.17
2023-11-10T03:06:19.813Z,19.92
2023-11-10T03:08:47.101Z,21.33
2023-11-10T03:11:14.486Z,20.17
2023-11-10T03:13:42.858Z,21.85
2023-11-10T03:16:10.838Z,22.38
2023-11-10T03:18:38.244Z,22.35
2023-11-10T03:21:07.139Z,22.27
2023-11-10T03:23:37.502Z,22.02
2023-11-10T03:26:04.955Z,23.35
2023-11-10T03:28:32.126Z,23.50
2023-11-10T03:31:00.200Z,23.00
2023-11-10T03:33:30.243Z,23.58
2023-11-10T03:35:57.563Z,22.95
2023-11-10T03:38:27.145Z,21.77
2023-11-10T03:40:54.840Z,22.17
2023-11-10T03:43:22.332Z,22.60
2023-11-10T03:45:49.756Z,22.70
2023-11-10T03:48:17.030Z,21.80
2023-11-10T03:50:44.334Z,22.70
2023-11-10T03:53:11.936Z,22.05
2023-11-10T03:55:39.235Z,20.92
2023-11-10T03:58:08.453Z,21.88
2023-11-10T04:00:42.310Z,21.42
2023-11-10T04:03:16.531Z,22.73
2023-11-10T04:05:47.014Z,23.30
2023-11-10T04:08:16.166Z,23.52
2023-11-10T04:10:43.459Z,22.38
2023-11-10T04:13:10.986Z,22.63
2023-11-10T04:15:38.177Z,24.17
2023-11-10T04:18:05.848Z,24.15
2023-11-10T04:20:34.808Z,24.40
2023-11-10T04:23:02.004Z,26.10
2023-11-10T04:25:30.942Z,27.05
2023-11-10T04:27:58.589Z,26.65
2023-11-10T04:30:25.822Z,25.17
2023-11-10T04:32:53.625Z,26.70
2023-11-10T04:35:20.868Z,28.38
2023-11-10T04:37:50.482Z,27.98
2023-11-10T04:42:46.620Z,29.23
2023-11-10T04:45:14.737Z,31.20
2023-11-10T04:47:42.080Z,30.98
2023-11-10T04:50:09.956Z,32.33
2023-11-10T04:52:37.576Z,32.03
2023-11-10T04:55:05.142Z,31.17
2023-11-10T04:57:32.526Z,31.77
2023-11-10T05:00:02.171Z,30.85
2023-11-10T05:02:29.741Z,30.55
2023-11-10T05:05:00.269Z,30.15
2023-11-10T05:07:28.386Z,30.40
2023-11-10T05:09:56.081Z,30.95
2023-11-10T05:12:24.522Z,30.42
2023-11-10T05:14:51.658Z,31.13
2023-11-10T05:17:18.945Z,29.95
2023-11-10T05:19:46.218Z,31.92
2023-11-10T05:22:13.473Z,31.23
2023-11-10T05:24:40.883Z,29.63
2023-11-10T05:27:08.161Z,29.00
2023-11-10T05:29:36.658Z,28.30
2023-11-10T05:32:05.712Z,28.40
2023-11-10T05:34:32.963Z,25.85
2023-11-10T05:37:00.228Z,28.10
2023-11-10T05:39:27.514Z,28.73
2023-11-10T05:41:54.812Z,29.38
2023-11-10T05:44:24.727Z,30.45
2023-11-10T05:46:51.943Z,31.17
2023-11-10T05:49:19.053Z,31.20
2023-11-10T05:51:48.070Z,30.23
2023-11-10T05:54:16.735Z,31.77
2023-11-10T05:56:44.126Z,33.03
2023-11-10T05:59:11.516Z,31.90
2023-11-10T06:01:38.765Z,31.05
2023-11-10T06:04:09.097Z,34.45
2023-11-10T06:06:39.302Z,32.08
2023-11-10T06:09:10.869Z,34.75
2023-11-10T06:11:49.382Z,33.38
2023-11-10T06:14:23.002Z,35.05
2023-11-10T06:16:50.294Z,34.28
2023-11-10T06:19:17.616Z,36.30
2023-11-10T06:21:45.131Z,35.63
2023-11-10T06:24:12.435Z,37.15
2023-11-10T06:26:39.955Z,38.70
2023-11-10T06:29:07.286Z,36.90
2023-11-10T06:31:43.904Z,35.35
2023-11-10T06:34:11.672Z,36.38
2023-11-10T06:36:39.020Z,35.38
2023-11-10T06:39:06.499Z,34.97
2023-11-10T06:41:33.758Z,33.00
2023-11-10T06:44:01.011Z,31.10
2023-11-10T06:46:28.996Z,30.98
2023-11-10T06:48:57.354Z,30.38
2023-11-10T06:51:25.306Z,30.33
2023-11-10T06:53:52.775Z,31.15
2023-11-10T06:56:20.185Z,28.10
2023-11-10T06:58:47.718Z,26.88
2023-11-10T07:01:15.589Z,25.13
2023-11-10T07:03:43.655Z,26.50
2023-11-10T07:06:11.159Z,21.75
2023-11-10T07:08:40.182Z,19.38
2023-11-10T07:11:09.017Z,18.45
2023-11-10T07:13:38.140Z,18.52
2023-11-10T07:16:05.661Z,17.47
2023-11-10T07:18:33.995Z,17.77
2023-11-10T07:21:01.227Z,18.05
2023-11-10T07:23:28.485Z,19.90
2023-11-10T07:25:55.715Z,18.92
2023-11-10T07:28:23.326Z,19.23
2023-11-10T07:30:50.666Z,18.42
2023-11-10T07:33:18.023Z,18.70
2023-11-10T07:35:45.330Z,17.42
2023-11-10T07:38:12.492Z,16.90
2023-11-10T07:40:39.667Z,17.15
2023-11-10T07:43:06.889Z,15.93
2023-11-10T07:45:36.373Z,16.02
2023-11-10T07:50:31.400Z,17.67
2023-11-10T07:52:58.667Z,16.95
2023-11-10T07:55:25.833Z,17.25
2023-11-10T07:57:53.765Z,17.20
2023-11-10T08:00:21.494Z,17.50
2023-11-10T08:02:53.837Z,16.52
2023-11-10T08:05:22.817Z,17.27
2023-11-10T08:07:50.894Z,15.68
2023-11-10T08:10:18.751Z,16.80
2023-11-10T08:12:46.624Z,15.75
2023-11-10T08:15:14.303Z,16.33
2023-11-10T08:17:41.557Z,14.55
2023-11-10T08:20:11.212Z,16.98
2023-11-10T08:22:38.708Z,15.10
2023-11-10T08:25:07.213Z,14.90
2023-11-10T08:27:34.987Z,13.07
2023-11-10T08:30:02.478Z,14.43
2023-11-10T08:32:30.400Z,14.85
2023-11-10T08:34:58.719Z,13.75
2023-11-10T08:37:26.150Z,13.32
2023-11-10T08:39:53.420Z,68.90
2023-11-10T08:42:23.815Z,14.02
2023-11-10T08:44:51.261Z,13.32
2023-11-10T08:47:18.450Z,12.38
2023-11-10T08:49:47.254Z,12.52
2023-11-10T08:52:19.564Z,13.52
2023-11-10T08:54:48.247Z,13.30
2023-11-10T08:57:15.571Z,14.38
2023-11-10T08:59:43.021Z,13.13
2023-11-10T09:02:10.570Z,12.35
2023-11-10T09:04:37.833Z,11.70
2023-11-10T09:07:08.098Z,12.52
2023-11-10T09:09:35.700Z,13.48
2023-11-10T09:12:02.982Z,13.50
2023-11-10T09:14:30.319Z,13.05
2023-11-10T09:16:57.587Z,13.70
2023-11-10T09:19:25.531Z,12.95
2023-11-10T09:21:53.128Z,12.23
2023-11-10T09:24:20.496Z,13.05
2023-11-10T09:26:49.041Z,17.98
2023-11-10T09:29:16.995Z,14.63
2023-11-10T09:31:44.302Z,12.63
2023-11-10T09:34:11.811Z,11.63
2023-11-10T09:36:39.436Z,18.80
2023-11-10T09:39:06.749Z,11.07
2023-11-10T09:41:40.197Z,20.98
2023-11-10T09:44:13.755Z,16.13
2023-11-10T09:46:44.570Z,12.77
2023-11-10T09:49:12.469Z,11.13
2023-11-10T09:51:41.449Z,11.32
2023-11-10T09:54:11.936Z,10.32
2023-11-10T09:56:41.235Z,9.80
2023-11-10T09:59:08.701Z,10.27
2023-11-10T10:01:36.207Z,9.40
2023-11-10T10:04:03.553Z,10.35
2023-11-10T10:06:34.660Z,9.60
2023-11-10T10:09:06.217Z,8.80
2023-11-10T10:11:33.934Z,9.23
2023-11-10T10:14:01.550Z,9.45
2023-11-10T10:16:29.384Z,9.93
2023-11-10T10:19:00.933Z,9.80
2023-11-10T10:21:48.510Z,10.73
2023-11-10T10:24:16.100Z,10.30
2023-11-10T10:26:44.687Z,9.52
2023-11-10T10:29:12.764Z,9.35
2023-11-10T10:31:40.338Z,9.93
2023-11-10T10:34:08.693Z,10.75
2023-11-10T10:36:39.806Z,9.88
2023-11-10T10:39:12.017Z,7.97
2023-11-10T10:41:48.410Z,8.18
2023-11-10T10:44:16.798Z,9.02
2023-11-10T10:46:45.425Z,10.25
2023-11-10T10:49:15.926Z,9.88
2023-11-10T10:51:45.197Z,11.65
2023-11-10T10:54:14.740Z,8.90
2023-11-10T10:56:45.292Z,8.85
2023-11-10T10:59:13.850Z,9.50
2023-11-10T11:01:47.707Z,9.10
2023-11-10T11:04:18.169Z,10.07
2023-11-10T11:07:18.485Z,9.00
2023-11-10T11:10:07.689Z,9.00
2023-11-10T11:12:55.695Z,8.48
2023-11-10T11:15:28.721Z,9.05
2023-11-10T11:18:05.445Z,8.25
2023-11-10T11:20:35.357Z,8.73
2023-11-10T11:23:06.495Z,8.30
2023-11-10T11:25:33.913Z,7.88
2023-11-10T11:28:01.615Z,8.10
2023-11-10T11:30:39.574Z,7.40
2023-11-10T11:33:13.488Z,5.40
2023-11-10T11:35:49.254Z,6.82
2023-11-10T11:38:26.316Z,6.60
2023-11-10T11:40:57.986Z,6.78
2023-11-10T11:43:26.886Z,24.10
2023-11-10T11:46:08.936Z,5.70
2023-11-10T11:48:36.939Z,12.02
2023-11-10T11:51:05.600Z,7.05
2023-11-10T11:53:38.776Z,16.40
2023-11-10T11:56:09.451Z,5.68
2023-11-10T11:58:39.233Z,5.60
2023-11-10T12:01:07.594Z,5.55
2023-11-10T12:03:35.223Z,5.63
2023-11-10T12:06:05.297Z,5.90
2023-11-10T12:08:33.244Z,5.68
2023-11-10T12:11:01.139Z,5.20
2023-11-10T12:13:28.573Z,5.25
2023-11-10T12:15:56.976Z,6.50
2023-11-10T12:18:27.051Z,6.22
2023-11-10T12:20:54.530Z,6.32
2023-11-10T12:23:22.073Z,6.65
2023-11-10T12:25:50.350Z,5.95
2023-11-10T12:28:17.805Z,6.10
2023-11-10T12:30:47.331Z,5.88
2023-11-10T12:33:18.267Z,6.53
2023-11-10T12:35:49.116Z,5.55
2023-11-10T12:38:17.239Z,5.70
2023-11-10T12:40:45.383Z,6.32
2023-11-10T12:43:14.103Z,6.65
2023-11-10T12:45:41.581Z,7.13
2023-11-10T12:48:16.373Z,5.13
2023-11-10T12:50:50.663Z,5.97
2023-11-10T12:53:19.709Z,5.30
2023-11-10T12:55:47.116Z,5.10
2023-11-10T12:58:15.805Z,6.15
2023-11-10T13:00:44.202Z,5.97
2023-11-10T13:03:13.670Z,5.57
2023-11-10T13:05:41.121Z,6.03
2023-11-10T13:08:09.166Z,21.35
2023-11-10T13:10:36.774Z,7.97
2023-11-10T13:13:04.637Z,6.00
2023-11-10T13:15:32.259Z,5.85
2023-11-10T13:17:59.709Z,5.57
2023-11-10T13:20:30.258Z,5.43
2023-11-10T13:22:58.573Z,6.05
2023-11-10T13:25:26.970Z,6.75
2023-11-10T13:27:54.532Z,6.35
2023-11-10T13:30:22.154Z,6.13
2023-11-10T13:32:49.691Z,6.57
2023-11-10T13:35:17.580Z,6.53
2023-11-10T13:37:45.392Z,6.88
2023-11-10T13:40:14.213Z,6.60
2023-11-10T13:42:43.320Z,7.00
2023-11-10T13:45:12.313Z,6.50
2023-11-10T13:47:44.255Z,7.20
2023-11-10T13:50:13.285Z,7.57
2023-11-10T13:52:41.386Z,7.10
2023-11-10T13:55:11.688Z,7.78
2023-11-10T13:57:39.832Z,7.95
2023-11-10T14:00:14.333Z,8.05
2023-11-10T14:02:42.527Z,8.45
2023-11-10T14:05:09.981Z,8.60
2023-11-10T14:07:37.297Z,8.07
2023-11-10T14:10:09.204Z,8.88
2023-11-10T14:12:37.720Z,10.18
2023-11-10T14:15:05.503Z,9.88
2023-11-10T14:17:34.210Z,9.95
2023-11-10T14:20:02.270Z,9.52
2023-11-10T14:22:30.474Z,9.55
2023-11-10T14:25:03.333Z,11.18
2023-11-10T14:27:31.191Z,11.40
2023-11-10T14:29:58.931Z,11.32
2023-11-10T14:32:27.074Z,12.93
2023-11-10T14:34:58.228Z,12.60
2023-11-10T14:37:28.513Z,11.80
2023-11-10T14:39:56.528Z,11.55
2023-11-10T14:42:27.372Z,11.45
2023-11-10T14:44:54.650Z,11.38
2023-11-10T14:47:26.332Z,11.13
2023-11-10T14:49:56.377Z,10.88
2023-11-10T14:52:27.161Z,10.13
2023-11-10T14:54:54.799Z,10.98
2023-11-10T14:57:22.551Z,10.55
2023-11-10T14:59:49.684Z,10.75
2023-11-10T15:02:20.210Z,9.88
2023-11-10T15:04:50.024Z,9.80
2023-11-10T15:07:18.224Z,10.40
2023-11-10T15:09:47.205Z,9.75
2023-11-10T15:14:42.721Z,9.77
2023-11-10T15:17:12.124Z,10.32
2023-11-10T15:19:39.512Z,10.68
2023-11-10T15:22:06.918Z,9.82
2023-11-10T15:24:37.549Z,10.18
2023-11-10T15:27:08.914Z,9.73
2023-11-10T15:29:36.516Z,10.38
2023-11-10T15:32:05.936Z,10.45
2023-11-10T15:34:36.864Z,11.20
2023-11-10T15:37:07.261Z,10.13
2023-11-10T15:39:35.204Z,10.50
2023-11-10T15:42:03.205Z,10.75
2023-11-10T15:44:30.885Z,11.13
2023-11-10T15:46:58.273Z,11.50
2023-11-10T15:49:25.669Z,10.82
2023-11-10T15:51:56.997Z,11.02
2023-11-10T15:54:28.520Z,11.52
2023-11-10T15:57:00.074Z,11.55
2023-11-10T15:59:28.089Z,12.30
2023-11-10T16:01:56.047Z,13.18
2023-11-10T16:04:23.617Z,14.27
2023-11-10T16:06:53.418Z,13.60
2023-11-10T16:09:22.045Z,12.77
2023-11-10T16:11:50.864Z,13.73
2023-11-10T16:14:18.967Z,25.52
2023-11-10T16:16:46.425Z,51.22
2023-11-10T16:19:18.976Z,13.50
2023-11-10T16:21:46.360Z,16.90
2023-11-10T16:24:14.171Z,14.30
2023-11-10T16:26:41.651Z,17.02
2023-11-10T16:29:11.300Z,15.30
2023-11-10T16:31:39.907Z,15.30
2023-11-10T16:34:07.431Z,16.17
2023-11-10T16:36:35.825Z,15.52
2023-11-10T16:39:06.468Z,15.55
2023-11-10T16:41:36.380Z,14.45
2023-11-10T16:44:04.197Z,14.27
2023-11-10T16:46:31.795Z,13.88
2023-11-10T16:48:59.116Z,13.65
2023-11-10T16:51:26.738Z,13.60
2023-11-10T16:53:56.796Z,13.75
2023-11-10T16:58:57.861Z,13.73
2023-11-10T17:01:26.483Z,14.77
2023-11-10T17:03:53.988Z,15.75
2023-11-10T17:06:21.380Z,14.73
2023-11-10T17:08:49.155Z,14.82
2023-11-10T17:11:16.544Z,14.93
2023-11-10T17:13:46.626Z,14.65
2023-11-10T17:16:14.383Z,13.93
2023-11-10T17:18:41.921Z,14.32
2023-11-10T17:21:09.156Z,14.00
2023-11-10T17:23:36.423Z,14.43
2023-11-10T17:26:04.699Z,13.98
2023-11-10T17:28:34.679Z,13.43
2023-11-10T17:31:04.865Z,16.13
2023-11-10T17:33:32.149Z,16.95
2023-11-10T17:36:02.377Z,16.40
2023-11-10T17:38:30.128Z,14.50
2023-11-10T17:41:00.248Z,13.73
2023-11-10T17:43:27.555Z,13.80
2023-11-10T17:45:54.827Z,13.23
2023-11-10T17:48:22.378Z,12.80
2023-11-10T17:50:50.064Z,12.90
2023-11-10T17:53:25.204Z,12.40
2023-11-10T17:55:54.777Z,12.70
2023-11-10T17:58:25.746Z,13.27
2023-11-10T18:00:59.397Z,12.57
2023-11-10T18:03:26.733Z,13.85
2023-11-10T18:05:57.315Z,13.88
2023-11-10T18:08:24.653Z,14.77
2023-11-10T18:10:53.488Z,16.20
2023-11-10T18:13:23.812Z,18.02
2023-11-10T18:15:56.584Z,19.90
2023-11-10T18:18:24.301Z,18.40
2023-11-10T18:20:51.987Z,18.35
2023-11-10T18:23:19.336Z,16.52
2023-11-10T18:25:46.829Z,15.98
2023-11-10T18:28:16.690Z,15.25
2023-11-10T18:30:47.053Z,14.75
2023-11-10T18:33:17.646Z,15.02
2023-11-10T18:35:44.963Z,14.40
2023-11-10T18:38:12.469Z,14.80
2023-11-10T18:40:45.202Z,14.15
2023-11-10T18:43:13.293Z,13.07
2023-11-10T18:45:41.013Z,11.98
2023-11-10T18:48:08.563Z,14.65
2023-11-10T18:50:36.094Z,13.52
2023-11-10T18:53:05.726Z,12.95
2023-11-10T18:55:33.049Z,13.70
2023-11-10T18:58:00.288Z,13.38
2023-11-10T19:00:27.677Z,12.85
2023-11-10T19:02:55.255Z,13.63
2023-11-10T19:05:26.583Z,14.10
2023-11-10T19:07:54.121Z,14.25
2023-11-10T19:10:22.259Z,15.32
2023-11-10T19:12:58.503Z,14.43
2023-11-10T19:15:26.196Z,13.90
2023-11-10T19:17:53.852Z,13.23
2023-11-10T19:20:24.528Z,12.32
2023-11-10T19:22:54.815Z,12.23
2023-11-10T19:25:22.178Z,12.85
2023-11-10T19:27:52.907Z,13.00
2023-11-10T19:30:23.786Z,13.20
2023-11-10T19:32:54.267Z,13.65
2023-11-10T19:35:21.738Z,14.10
2023-11-10T19:37:48.899Z,14.63
2023-11-10T19:40:16.352Z,13.57
2023-11-10T19:42:44.339Z,12.43
2023-11-10T19:45:14.920Z,12.55
2023-11-10T19:47:42.208Z,12.23
2023-11-10T19:50:12.625Z,12.82
2023-11-10T19:52:39.919Z,13.07
2023-11-10T19:55:10.519Z,14.00
2023-11-10T19:57:41.416Z,13.73
2023-11-10T20:02:46.659Z,14.32
2023-11-10T20:05:20.283Z,13.07
2023-11-10T20:07:47.729Z,13.48
2023-11-10T20:10:15.315Z,14.07
2023-11-10T20:12:42.786Z,23.85
2023-11-10T20:15:13.222Z,32.75
2023-11-10T20:17:41.130Z,14.38
2023-11-10T20:20:08.727Z,11.80
2023-11-10T20:22:36.919Z,12.20
2023-11-10T20:25:08.231Z,13.82
2023-11-10T20:27:36.175Z,12.68
2023-11-10T20:30:04.460Z,13.60
2023-11-10T20:32:33.079Z,12.52
2023-11-10T20:35:00.399Z,12.05
2023-11-10T20:37:27.870Z,12.23
2023-11-10T20:39:55.072Z,12.07
2023-11-10T20:42:22.659Z,12.20
2023-11-10T20:44:50.260Z,12.68
2023-11-10T20:47:17.525Z,12.27
2023-11-10T20:49:45.252Z,13.57
2023-11-10T20:52:13.884Z,12.65
2023-11-10T20:54:41.904Z,13.40
2023-11-10T20:57:11.537Z,16.58
2023-11-10T21:02:05.902Z,14.68
2023-11-10T21:04:33.480Z,12.65
2023-11-10T21:07:00.895Z,13.75
2023-11-10T21:09:28.233Z,12.75
2023-11-10T21:11:55.445Z,12.98
2023-11-10T21:14:23.120Z,13.57
2023-11-10T21:16:50.351Z,13.13
2023-11-10T21:19:17.681Z,12.95
2023-11-10T21:21:48.930Z,12.75
2023-11-10T21:24:16.681Z,12.30
2023-11-10T21:26:48.706Z,11.65
2023-11-10T21:29:16.044Z,11.50
2023-11-10T21:31:43.253Z,10.77
2023-11-10T21:34:10.653Z,10.48
2023-11-10T21:36:38.941Z,11.80
2023-11-10T21:39:12.246Z,11.02
2023-11-10T21:41:40.171Z,10.90
2023-11-10T21:44:11.058Z,11.57
2023-11-10T21:46:38.753Z,11.00
2023-11-10T21:49:06.502Z,12.43
2023-11-10T21:51:35.009Z,11.52
2023-11-10T21:54:03.181Z,16.02
2023-11-10T21:56:30.485Z,11.82
2023-11-10T21:58:57.590Z,10.15
2023-11-10T22:01:25.581Z,11.50
2023-11-10T22:03:52.968Z,11.07
2023-11-10T22:06:20.301Z,10.23
2023-11-10T22:08:47.621Z,10.85
2023-11-10T22:11:15.021Z,11.35
2023-11-10T22:13:42.274Z,11.27
2023-11-10T22:16:09.673Z,11.60
2023-11-10T22:18:37.057Z,11.55
2023-11-10T22:21:10.943Z,10.63
2023-11-10T22:23:38.931Z,10.75
2023-11-10T22:26:06.181Z,10.38
2023-11-10T22:28:33.389Z,10.07
2023-11-10T22:31:01.910Z,9.88
2023-11-10T22:33:29.153Z,9.45
2023-11-10T22:35:58.628Z,12.85
2023-11-10T22:38:26.235Z,10.57
2023-11-10T22:40:53.562Z,11.85
2023-11-10T22:43:21.986Z,11.85
2023-11-10T22:45:49.155Z,10.68
2023-11-10T22:48:16.489Z,10.45
2023-11-10T22:50:43.780Z,10.48
2023-11-10T22:53:10.996Z,10.35
2023-11-10T22:55:38.318Z,10.48
2023-11-10T22:58:05.476Z,22.35
2023-11-10T23:00:36.401Z,12.85
2023-11-10T23:03:08.283Z,12.25
2023-11-10T23:05:36.624Z,13.10
2023-11-10T23:08:04.094Z,12.57
2023-11-10T23:10:31.889Z,10.75
2023-11-10T23:12:59.826Z,11.48
2023-11-10T23:15:27.992Z,10.43
2023-11-10T23:17:59.393Z,10.18
2023-11-10T23:20:34.256Z,11.48
2023-11-10T23:23:04.936Z,10.95
2023-11-10T23:25:33.293Z,10.55
2023-11-10T23:28:00.641Z,10.45
2023-11-10T23:30:28.031Z,10.73
2023-11-10T23:32:55.354Z,11.02
2023-11-10T23:35:25.645Z,11.45
2023-11-10T23:37:55.643Z,11.38
2023-11-10T23:40:24.424Z,11.55
2023-11-10T23:42:51.751Z,11.80
2023-11-10T23:45:19.029Z,11.55
2023-11-10T23:47:46.967Z,11.05
2023-11-10T23:50:14.211Z,11.10
2023-11-10T23:52:42.080Z,9.85
2023-11-10T23:55:09.630Z,10.55
2023-11-10T23:57:36.893Z,9.90
